sensor_id;sensor_type;location;lat;lon;timestamp;temperature;humidity
40374;DHT22;26079;45.958;12.492;2023-08-21T00:01:18;24.10;99.90
40374;DHT22;26079;45.958;12.492;2023-08-21T00:03:44;24.10;99.90
40374;DHT22;26079;45.958;12.492;2023-08-21T00:06:10;23.90;99.90
40374;DHT22;26079;45.958;12.492;2023-08-21T00:08:36;23.90;99.90
40374;DHT22;26079;45.958;12.492;2023-08-21T00:11:02;23.90;99.90
40374;DHT22;26079;45.958;12.492;2023-08-21T00:13:27;23.90;99.90
40374;DHT22;26079;45.958;12.492;2023-08-21T00:15:53;24.00;99.90
40374;DHT22;26079;45.958;12.492;2023-08-21T00:18:21;24.00;99.90
40374;DHT22;26079;45.958;12.492;2023-08-21T00:20:46;24.00;99.90
40374;DHT22;26079;45.958;12.492;2023-08-21T00:23:12;24.00;99.90
40374;DHT22;26079;45.958;12.492;2023-08-21T00:25:38;23.80;99.90
40374;DHT22;26079;45.958;12.492;2023-08-21T00:28:04;23.70;99.90
40374;DHT22;26079;45.958;12.492;2023-08-21T00:30:29;23.60;99.90
40374;DHT22;26079;45.958;12.492;2023-08-21T00:32:55;23.60;99.90
40374;DHT22;26079;45.958;12.492;2023-08-21T00:35:21;23.60;99.90
40374;DHT22;26079;45.958;12.492;2023-08-21T00:37:46;23.60;99.90
40374;DHT22;26079;45.958;12.492;2023-08-21T00:40:12;23.60;99.90
40374;DHT22;26079;45.958;12.492;2023-08-21T00:42:39;23.60;99.90
40374;DHT22;26079;45.958;12.492;2023-08-21T00:45:05;23.60;99.90
40374;DHT22;26079;45.958;12.492;2023-08-21T00:47:34;23.60;99.90
40374;DHT22;26079;45.958;12.492;2023-08-21T00:50:00;23.70;99.90
40374;DHT22;26079;45.958;12.492;2023-08-21T00:52:26;23.60;99.90
40374;DHT22;26079;45.958;12.492;2023-08-21T00:54:52;23.60;99.90
40374;DHT22;26079;45.958;12.492;2023-08-21T00:57:18;23.60;99.90
40374;DHT22;26079;45.958;12.492;2023-08-21T00:59:45;23.60;99.90
40374;DHT22;26079;45.958;12.492;2023-08-21T01:02:12;23.50;99.90
40374;DHT22;26079;45.958;12.492;2023-08-21T01:04:37;23.50;99.90
40374;DHT22;26079;45.958;12.492;2023-08-21T01:07:03;23.50;99.90
40374;DHT22;26079;45.958;12.492;2023-08-21T01:09:42;23.40;99.90
40374;DHT22;26079;45.958;12.492;2023-08-21T01:12:37;23.40;99.90
40374;DHT22;26079;45.958;12.492;2023-08-21T01:15:07;23.40;99.90
40374;DHT22;26079;45.958;12.492;2023-08-21T01:17:37;23.40;99.90
40374;DHT22;26079;45.958;12.492;2023-08-21T01:20:05;23.50;99.90
40374;DHT22;26079;45.958;12.492;2023-08-21T01:22:38;23.50;99.90
40374;DHT22;26079;45.958;12.492;2023-08-21T01:25:05;23.50;99.90
40374;DHT22;26079;45.958;12.492;2023-08-21T01:27:32;23.50;99.90
40374;DHT22;26079;45.958;12.492;2023-08-21T01:29:59;23.50;99.90
40374;DHT22;26079;45.958;12.492;2023-08-21T01:34:51;23.40;99.90
40374;DHT22;26079;45.958;12.492;2023-08-21T01:37:19;23.40;99.90
40374;DHT22;26079;45.958;12.492;2023-08-21T01:39:45;23.30;99.90
40374;DHT22;26079;45.958;12.492;2023-08-21T01:42:10;23.20;99.90
40374;DHT22;26079;45.958;12.492;2023-08-21T01:44:36;23.10;99.90
40374;DHT22;26079;45.958;12.492;2023-08-21T01:47:02;23.10;99.90
40374;DHT22;26079;45.958;12.492;2023-08-21T01:49:28;23.10;99.90
40374;DHT22;26079;45.958;12.492;2023-08-21T01:51:53;23.10;99.90
40374;DHT22;26079;45.958;12.492;2023-08-21T01:54:19;23.10;99.90
40374;DHT22;26079;45.958;12.492;2023-08-21T01:56:45;23.20;99.90
40374;DHT22;26079;45.958;12.492;2023-08-21T01:59:10;23.20;99.90
40374;DHT22;26079;45.958;12.492;2023-08-21T02:01:36;23.10;99.90
40374;DHT22;26079;45.958;12.492;2023-08-21T02:04:01;23.00;99.90
40374;DHT22;26079;45.958;12.492;2023-08-21T02:06:27;23.00;99.90
40374;DHT22;26079;45.958;12.492;2023-08-21T02:08:53;23.00;99.90
40374;DHT22;26079;45.958;12.492;2023-08-21T02:11:18;23.00;99.90
40374;DHT22;26079;45.958;12.492;2023-08-21T02:13:44;22.90;99.90
40374;DHT22;26079;45.958;12.492;2023-08-21T02:16:10;22.90;99.90
40374;DHT22;26079;45.958;12.492;2023-08-21T02:18:35;22.90;99.90
40374;DHT22;26079;45.958;12.492;2023-08-21T02:21:01;22.90;99.90
40374;DHT22;26079;45.958;12.492;2023-08-21T02:23:27;22.90;99.90
40374;DHT22;26079;45.958;12.492;2023-08-21T02:25:54;22.80;99.90
40374;DHT22;26079;45.958;12.492;2023-08-21T02:28:19;22.80;99.90
40374;DHT22;26079;45.958;12.492;2023-08-21T02:30:45;22.80;99.90
40374;DHT22;26079;45.958;12.492;2023-08-21T02:33:11;22.80;99.90
40374;DHT22;26079;45.958;12.492;2023-08-21T02:35:37;22.80;99.90
40374;DHT22;26079;45.958;12.492;2023-08-21T02:38:03;22.90;99.90
40374;DHT22;26079;45.958;12.492;2023-08-21T02:40:28;22.90;99.90
40374;DHT22;26079;45.958;12.492;2023-08-21T02:42:54;22.90;99.90
40374;DHT22;26079;45.958;12.492;2023-08-21T02:45:20;22.90;99.90
40374;DHT22;26079;45.958;12.492;2023-08-21T02:47:45;22.90;99.90
40374;DHT22;26079;45.958;12.492;2023-08-21T02:50:11;22.90;99.90
40374;DHT22;26079;45.958;12.492;2023-08-21T02:52:37;22.80;99.90
40374;DHT22;26079;45.958;12.492;2023-08-21T02:55:04;22.80;99.90
40374;DHT22;26079;45.958;12.492;2023-08-21T02:57:30;22.80;99.90
40374;DHT22;26079;45.958;12.492;2023-08-21T02:59:56;22.80;99.90
40374;DHT22;26079;45.958;12.492;2023-08-21T03:02:22;22.80;99.90
40374;DHT22;26079;45.958;12.492;2023-08-21T03:04:48;22.70;99.90
40374;DHT22;26079;45.958;12.492;2023-08-21T03:07:15;22.70;99.90
40374;DHT22;26079;45.958;12.492;2023-08-21T03:09:41;22.70;99.90
40374;DHT22;26079;45.958;12.492;2023-08-21T03:12:08;22.70;99.90
40374;DHT22;26079;45.958;12.492;2023-08-21T03:14:34;22.70;99.90
40374;DHT22;26079;45.958;12.492;2023-08-21T03:16:59;22.70;99.90
40374;DHT22;26079;45.958;12.492;2023-08-21T03:19:25;22.70;99.90
40374;DHT22;26079;45.958;12.492;2023-08-21T03:21:51;22.70;99.90
40374;DHT22;26079;45.958;12.492;2023-08-21T03:24:17;22.70;99.90
40374;DHT22;26079;45.958;12.492;2023-08-21T03:26:43;22.70;99.90
40374;DHT22;26079;45.958;12.492;2023-08-21T03:29:09;22.70;99.90
40374;DHT22;26079;45.958;12.492;2023-08-21T03:31:35;22.70;99.90
40374;DHT22;26079;45.958;12.492;2023-08-21T03:34:01;22.60;99.90
40374;DHT22;26079;45.958;12.492;2023-08-21T03:36:26;22.60;99.90
40374;DHT22;26079;45.958;12.492;2023-08-21T03:39:01;22.60;99.90
40374;DHT22;26079;45.958;12.492;2023-08-21T03:41:27;22.60;99.90
40374;DHT22;26079;45.958;12.492;2023-08-21T03:43:53;22.60;99.90
40374;DHT22;26079;45.958;12.492;2023-08-21T03:46:19;22.60;99.90
40374;DHT22;26079;45.958;12.492;2023-08-21T03:48:45;22.60;99.90
40374;DHT22;26079;45.958;12.492;2023-08-21T03:51:10;22.60;99.90
40374;DHT22;26079;45.958;12.492;2023-08-21T03:53:36;22.60;99.90
40374;DHT22;26079;45.958;12.492;2023-08-21T03:56:02;22.50;99.90
40374;DHT22;26079;45.958;12.492;2023-08-21T03:58:28;22.50;99.90
40374;DHT22;26079;45.958;12.492;2023-08-21T04:00:53;22.60;99.90
40374;DHT22;26079;45.958;12.492;2023-08-21T04:03:20;22.50;99.90
40374;DHT22;26079;45.958;12.492;2023-08-21T04:05:46;22.40;99.90
40374;DHT22;26079;45.958;12.492;2023-08-21T04:08:12;22.30;99.90
40374;DHT22;26079;45.958;12.492;2023-08-21T04:10:38;22.20;99.90
40374;DHT22;26079;45.958;12.492;2023-08-21T04:16:26;22.10;99.90
40374;DHT22;26079;45.958;12.492;2023-08-21T04:18:52;22.20;99.90
40374;DHT22;26079;45.958;12.492;2023-08-21T04:21:18;22.20;99.90
40374;DHT22;26079;45.958;12.492;2023-08-21T04:23:44;22.20;99.90
40374;DHT22;26079;45.958;12.492;2023-08-21T04:26:13;22.10;99.90
40374;DHT22;26079;45.958;12.492;2023-08-21T04:28:39;22.00;99.90
40374;DHT22;26079;45.958;12.492;2023-08-21T04:31:07;22.00;99.90
40374;DHT22;26079;45.958;12.492;2023-08-21T04:33:34;22.00;99.90
40374;DHT22;26079;45.958;12.492;2023-08-21T04:36:00;22.00;99.90
40374;DHT22;26079;45.958;12.492;2023-08-21T04:38:26;22.10;99.90
40374;DHT22;26079;45.958;12.492;2023-08-21T04:40:51;22.20;99.90
40374;DHT22;26079;45.958;12.492;2023-08-21T04:43:17;22.20;99.90
40374;DHT22;26079;45.958;12.492;2023-08-21T04:45:52;22.20;99.90
40374;DHT22;26079;45.958;12.492;2023-08-21T04:48:18;22.20;99.90
40374;DHT22;26079;45.958;12.492;2023-08-21T04:50:45;22.20;99.90
40374;DHT22;26079;45.958;12.492;2023-08-21T04:53:11;22.30;99.90
40374;DHT22;26079;45.958;12.492;2023-08-21T04:55:37;22.40;99.90
40374;DHT22;26079;45.958;12.492;2023-08-21T04:58:06;22.40;99.90
40374;DHT22;26079;45.958;12.492;2023-08-21T05:00:32;22.50;99.90
40374;DHT22;26079;45.958;12.492;2023-08-21T05:02:58;22.50;99.90
40374;DHT22;26079;45.958;12.492;2023-08-21T05:05:23;22.60;99.90
40374;DHT22;26079;45.958;12.492;2023-08-21T05:07:49;22.70;99.90
40374;DHT22;26079;45.958;12.492;2023-08-21T05:10:15;22.90;99.90
40374;DHT22;26079;45.958;12.492;2023-08-21T05:12:41;23.00;99.90
40374;DHT22;26079;45.958;12.492;2023-08-21T05:15:07;23.10;99.90
40374;DHT22;26079;45.958;12.492;2023-08-21T05:17:33;23.20;99.90
40374;DHT22;26079;45.958;12.492;2023-08-21T05:19:58;23.30;99.90
40374;DHT22;26079;45.958;12.492;2023-08-21T05:22:24;23.40;99.90
40374;DHT22;26079;45.958;12.492;2023-08-21T05:24:50;23.60;99.90
40374;DHT22;26079;45.958;12.492;2023-08-21T05:27:15;23.70;99.90
40374;DHT22;26079;45.958;12.492;2023-08-21T05:29:41;23.80;99.90
40374;DHT22;26079;45.958;12.492;2023-08-21T05:32:07;24.00;99.90
40374;DHT22;26079;45.958;12.492;2023-08-21T05:34:33;24.00;99.20
40374;DHT22;26079;45.958;12.492;2023-08-21T05:36:58;23.90;99.80
40374;DHT22;26079;45.958;12.492;2023-08-21T05:39:24;23.80;99.90
40374;DHT22;26079;45.958;12.492;2023-08-21T05:41:50;23.70;99.90
40374;DHT22;26079;45.958;12.492;2023-08-21T05:44:15;23.70;99.90
40374;DHT22;26079;45.958;12.492;2023-08-21T05:46:41;23.70;99.90
40374;DHT22;26079;45.958;12.492;2023-08-21T05:49:07;23.60;99.90
40374;DHT22;26079;45.958;12.492;2023-08-21T05:51:33;23.80;99.90
40374;DHT22;26079;45.958;12.492;2023-08-21T05:53:59;24.20;99.90
40374;DHT22;26079;45.958;12.492;2023-08-21T05:56:25;24.60;99.90
40374;DHT22;26079;45.958;12.492;2023-08-21T05:58:50;25.30;98.50
40374;DHT22;26079;45.958;12.492;2023-08-21T06:01:16;26.40;96.60
40374;DHT22;26079;45.958;12.492;2023-08-21T06:03:43;27.80;92.50
40374;DHT22;26079;45.958;12.492;2023-08-21T06:06:08;29.20;86.40
40374;DHT22;26079;45.958;12.492;2023-08-21T06:08:34;29.90;82.60
40374;DHT22;26079;45.958;12.492;2023-08-21T06:11:00;30.40;80.90
40374;DHT22;26079;45.958;12.492;2023-08-21T06:13:44;30.90;79.80
40374;DHT22;26079;45.958;12.492;2023-08-21T06:16:13;31.60;79.60
40374;DHT22;26079;45.958;12.492;2023-08-21T06:18:38;31.80;80.00
40374;DHT22;26079;45.958;12.492;2023-08-21T06:21:04;31.50;80.80
40374;DHT22;26079;45.958;12.492;2023-08-21T06:23:30;31.00;82.20
40374;DHT22;26079;45.958;12.492;2023-08-21T06:25:55;30.40;82.20
40374;DHT22;26079;45.958;12.492;2023-08-21T06:28:21;29.80;83.00
40374;DHT22;26079;45.958;12.492;2023-08-21T06:30:47;29.20;84.20
40374;DHT22;26079;45.958;12.492;2023-08-21T06:33:12;28.70;86.50
40374;DHT22;26079;45.958;12.492;2023-08-21T06:35:39;28.30;88.20
40374;DHT22;26079;45.958;12.492;2023-08-21T06:38:07;28.00;89.60
40374;DHT22;26079;45.958;12.492;2023-08-21T06:40:33;27.70;90.30
40374;DHT22;26079;45.958;12.492;2023-08-21T06:42:59;27.60;90.20
40374;DHT22;26079;45.958;12.492;2023-08-21T06:45:24;27.40;89.90
40374;DHT22;26079;45.958;12.492;2023-08-21T06:47:50;27.10;90.90
40374;DHT22;26079;45.958;12.492;2023-08-21T06:50:16;26.80;91.60
40374;DHT22;26079;45.958;12.492;2023-08-21T06:52:42;26.90;92.00
40374;DHT22;26079;45.958;12.492;2023-08-21T06:55:07;26.90;92.00
40374;DHT22;26079;45.958;12.492;2023-08-21T06:57:33;26.80;92.30
40374;DHT22;26079;45.958;12.492;2023-08-21T06:59:59;26.80;92.00
40374;DHT22;26079;45.958;12.492;2023-08-21T07:02:25;26.90;91.80
40374;DHT22;26079;45.958;12.492;2023-08-21T07:04:50;27.00;89.70
40374;DHT22;26079;45.958;12.492;2023-08-21T07:07:16;27.10;89.80
40374;DHT22;26079;45.958;12.492;2023-08-21T07:09:42;27.20;90.30
40374;DHT22;26079;45.958;12.492;2023-08-21T07:12:07;27.20;89.60
40374;DHT22;26079;45.958;12.492;2023-08-21T07:14:33;27.20;89.30
40374;DHT22;26079;45.958;12.492;2023-08-21T07:16:59;27.40;89.60
40374;DHT22;26079;45.958;12.492;2023-08-21T07:19:24;27.50;88.70
40374;DHT22;26079;45.958;12.492;2023-08-21T07:21:50;27.60;90.60
40374;DHT22;26079;45.958;12.492;2023-08-21T07:24:15;27.60;90.30
40374;DHT22;26079;45.958;12.492;2023-08-21T07:26:41;27.70;89.40
40374;DHT22;26079;45.958;12.492;2023-08-21T07:29:07;27.70;87.70
40374;DHT22;26079;45.958;12.492;2023-08-21T07:31:34;27.90;86.20
40374;DHT22;26079;45.958;12.492;2023-08-21T07:33:59;28.10;84.30
40374;DHT22;26079;45.958;12.492;2023-08-21T07:36:25;28.20;83.70
40374;DHT22;26079;45.958;12.492;2023-08-21T07:38:51;28.20;83.10
40374;DHT22;26079;45.958;12.492;2023-08-21T07:41:17;28.20;83.80
40374;DHT22;26079;45.958;12.492;2023-08-21T07:43:43;28.30;82.60
40374;DHT22;26079;45.958;12.492;2023-08-21T07:46:11;28.30;83.10
40374;DHT22;26079;45.958;12.492;2023-08-21T07:48:41;28.30;83.10
40374;DHT22;26079;45.958;12.492;2023-08-21T07:51:07;28.40;81.70
40374;DHT22;26079;45.958;12.492;2023-08-21T07:53:32;28.40;80.50
40374;DHT22;26079;45.958;12.492;2023-08-21T07:56:00;28.40;81.70
40374;DHT22;26079;45.958;12.492;2023-08-21T07:58:26;28.40;81.40
40374;DHT22;26079;45.958;12.492;2023-08-21T08:00:52;28.50;82.10
40374;DHT22;26079;45.958;12.492;2023-08-21T08:03:17;28.50;81.90
40374;DHT22;26079;45.958;12.492;2023-08-21T08:05:43;28.60;82.60
40374;DHT22;26079;45.958;12.492;2023-08-21T08:08:09;28.80;81.60
40374;DHT22;26079;45.958;12.492;2023-08-21T08:10:38;28.80;81.30
40374;DHT22;26079;45.958;12.492;2023-08-21T08:13:05;28.90;79.50
40374;DHT22;26079;45.958;12.492;2023-08-21T08:15:30;29.00;80.70
40374;DHT22;26079;45.958;12.492;2023-08-21T08:17:57;29.10;79.30
40374;DHT22;26079;45.958;12.492;2023-08-21T08:20:23;29.10;80.50
40374;DHT22;26079;45.958;12.492;2023-08-21T08:22:49;29.20;81.30
40374;DHT22;26079;45.958;12.492;2023-08-21T08:25:14;29.30;81.80
40374;DHT22;26079;45.958;12.492;2023-08-21T08:27:40;29.40;81.80
40374;DHT22;26079;45.958;12.492;2023-08-21T08:30:06;29.50;81.80
40374;DHT22;26079;45.958;12.492;2023-08-21T08:32:32;29.70;82.10
40374;DHT22;26079;45.958;12.492;2023-08-21T08:34:58;29.70;81.70
40374;DHT22;26079;45.958;12.492;2023-08-21T08:37:23;29.70;82.10
40374;DHT22;26079;45.958;12.492;2023-08-21T08:39:49;29.70;81.80
40374;DHT22;26079;45.958;12.492;2023-08-21T08:42:15;29.80;81.50
40374;DHT22;26079;45.958;12.492;2023-08-21T08:44:42;29.80;80.70
40374;DHT22;26079;45.958;12.492;2023-08-21T08:47:09;30.00;80.80
40374;DHT22;26079;45.958;12.492;2023-08-21T08:49:35;30.10;79.60
40374;DHT22;26079;45.958;12.492;2023-08-21T08:52:02;30.10;79.70
40374;DHT22;26079;45.958;12.492;2023-08-21T08:54:30;30.20;80.20
40374;DHT22;26079;45.958;12.492;2023-08-21T08:56:56;30.20;79.40
40374;DHT22;26079;45.958;12.492;2023-08-21T08:59:22;30.30;79.20
40374;DHT22;26079;45.958;12.492;2023-08-21T09:01:48;30.40;79.00
40374;DHT22;26079;45.958;12.492;2023-08-21T09:04:14;30.60;79.20
40374;DHT22;26079;45.958;12.492;2023-08-21T09:06:40;30.80;79.80
40374;DHT22;26079;45.958;12.492;2023-08-21T09:09:07;30.80;80.40
40374;DHT22;26079;45.958;12.492;2023-08-21T09:11:33;30.80;79.90
40374;DHT22;26079;45.958;12.492;2023-08-21T09:14:00;30.70;77.90
40374;DHT22;26079;45.958;12.492;2023-08-21T09:16:26;30.80;77.10
40374;DHT22;26079;45.958;12.492;2023-08-21T09:18:56;30.80;76.90
40374;DHT22;26079;45.958;12.492;2023-08-21T09:21:23;31.00;77.50
40374;DHT22;26079;45.958;12.492;2023-08-21T09:23:59;31.10;77.90
40374;DHT22;26079;45.958;12.492;2023-08-21T09:26:26;31.10;77.20
40374;DHT22;26079;45.958;12.492;2023-08-21T09:28:52;31.00;77.10
40374;DHT22;26079;45.958;12.492;2023-08-21T09:31:30;31.00;74.60
40374;DHT22;26079;45.958;12.492;2023-08-21T09:37:18;31.40;74.30
40374;DHT22;26079;45.958;12.492;2023-08-21T09:39:44;31.30;74.80
40374;DHT22;26079;45.958;12.492;2023-08-21T09:42:11;31.40;74.10
40374;DHT22;26079;45.958;12.492;2023-08-21T09:44:41;31.50;72.90
40374;DHT22;26079;45.958;12.492;2023-08-21T09:47:12;31.70;69.40
40374;DHT22;26079;45.958;12.492;2023-08-21T09:49:38;31.80;71.60
40374;DHT22;26079;45.958;12.492;2023-08-21T09:52:08;32.00;69.80
40374;DHT22;26079;45.958;12.492;2023-08-21T09:54:38;32.20;66.90
40374;DHT22;26079;45.958;12.492;2023-08-21T09:57:04;32.30;68.50
40374;DHT22;26079;45.958;12.492;2023-08-21T09:59:31;32.40;69.00
40374;DHT22;26079;45.958;12.492;2023-08-21T10:02:00;32.30;69.60
40374;DHT22;26079;45.958;12.492;2023-08-21T10:04:28;32.10;67.70
40374;DHT22;26079;45.958;12.492;2023-08-21T10:06:58;31.90;67.90
40374;DHT22;26079;45.958;12.492;2023-08-21T10:09:27;31.90;67.60
40374;DHT22;26079;45.958;12.492;2023-08-21T10:11:53;31.90;68.80
40374;DHT22;26079;45.958;12.492;2023-08-21T10:14:24;32.10;67.30
40374;DHT22;26079;45.958;12.492;2023-08-21T10:16:52;32.30;67.80
40374;DHT22;26079;45.958;12.492;2023-08-21T10:19:18;32.20;69.50
40374;DHT22;26079;45.958;12.492;2023-08-21T10:21:47;32.10;67.70
40374;DHT22;26079;45.958;12.492;2023-08-21T10:24:26;32.20;68.60
40374;DHT22;26079;45.958;12.492;2023-08-21T10:26:51;32.30;67.70
40374;DHT22;26079;45.958;12.492;2023-08-21T10:29:17;32.10;68.50
40374;DHT22;26079;45.958;12.492;2023-08-21T10:31:43;32.00;68.40
40374;DHT22;26079;45.958;12.492;2023-08-21T10:34:11;32.00;68.90
40374;DHT22;26079;45.958;12.492;2023-08-21T10:39:20;32.30;70.60
40374;DHT22;26079;45.958;12.492;2023-08-21T10:41:57;32.40;69.90
40374;DHT22;26079;45.958;12.492;2023-08-21T10:49:51;32.30;68.40
40374;DHT22;26079;45.958;12.492;2023-08-21T10:52:22;32.40;68.10
40374;DHT22;26079;45.958;12.492;2023-08-21T10:54:51;32.40;68.70
40374;DHT22;26079;45.958;12.492;2023-08-21T10:57:17;32.30;68.30
40374;DHT22;26079;45.958;12.492;2023-08-21T11:02:47;32.40;68.20
40374;DHT22;26079;45.958;12.492;2023-08-21T11:05:14;32.30;67.50
40374;DHT22;26079;45.958;12.492;2023-08-21T11:07:47;32.50;67.20
40374;DHT22;26079;45.958;12.492;2023-08-21T11:10:18;32.50;68.00
40374;DHT22;26079;45.958;12.492;2023-08-21T11:12:57;32.40;68.80
40374;DHT22;26079;45.958;12.492;2023-08-21T11:15:26;32.40;68.70
40374;DHT22;26079;45.958;12.492;2023-08-21T11:17:56;32.40;68.30
40374;DHT22;26079;45.958;12.492;2023-08-21T11:20:26;32.40;69.40
40374;DHT22;26079;45.958;12.492;2023-08-21T11:22:59;32.40;69.70
40374;DHT22;26079;45.958;12.492;2023-08-21T11:25:31;32.50;67.90
40374;DHT22;26079;45.958;12.492;2023-08-21T11:27:57;32.60;68.20
40374;DHT22;26079;45.958;12.492;2023-08-21T11:30:23;32.50;68.70
40374;DHT22;26079;45.958;12.492;2023-08-21T11:32:52;32.60;68.20
40374;DHT22;26079;45.958;12.492;2023-08-21T11:35:29;32.60;68.80
40374;DHT22;26079;45.958;12.492;2023-08-21T11:37:55;32.60;67.50
40374;DHT22;26079;45.958;12.492;2023-08-21T11:40:20;32.50;68.10
40374;DHT22;26079;45.958;12.492;2023-08-21T11:42:46;32.70;68.90
40374;DHT22;26079;45.958;12.492;2023-08-21T11:45:20;32.70;67.70
40374;DHT22;26079;45.958;12.492;2023-08-21T11:47:46;32.50;67.80
40374;DHT22;26079;45.958;12.492;2023-08-21T11:50:11;32.40;69.40
40374;DHT22;26079;45.958;12.492;2023-08-21T11:52:40;32.40;69.00
40374;DHT22;26079;45.958;12.492;2023-08-21T11:55:08;32.50;68.60
40374;DHT22;26079;45.958;12.492;2023-08-21T11:57:48;32.70;69.20
40374;DHT22;26079;45.958;12.492;2023-08-21T12:00:15;32.90;68.90
40374;DHT22;26079;45.958;12.492;2023-08-21T12:03:02;33.00;67.20
40374;DHT22;26079;45.958;12.492;2023-08-21T12:05:31;32.90;68.00
40374;DHT22;26079;45.958;12.492;2023-08-21T12:07:58;32.90;67.50
40374;DHT22;26079;45.958;12.492;2023-08-21T12:10:28;32.90;68.50
40374;DHT22;26079;45.958;12.492;2023-08-21T12:12:54;33.10;68.30
40374;DHT22;26079;45.958;12.492;2023-08-21T12:15:19;33.00;67.60
40374;DHT22;26079;45.958;12.492;2023-08-21T12:17:45;33.00;67.80
40374;DHT22;26079;45.958;12.492;2023-08-21T12:20:11;33.00;67.80
40374;DHT22;26079;45.958;12.492;2023-08-21T12:22:40;33.20;66.60
40374;DHT22;26079;45.958;12.492;2023-08-21T12:25:09;33.40;66.20
40374;DHT22;26079;45.958;12.492;2023-08-21T12:27:36;33.70;65.50
40374;DHT22;26079;45.958;12.492;2023-08-21T12:30:02;33.50;66.40
40374;DHT22;26079;45.958;12.492;2023-08-21T12:32:28;33.20;67.50
40374;DHT22;26079;45.958;12.492;2023-08-21T12:34:53;33.00;68.80
40374;DHT22;26079;45.958;12.492;2023-08-21T12:37:19;33.00;68.70
40374;DHT22;26079;45.958;12.492;2023-08-21T12:39:45;32.90;69.50
40374;DHT22;26079;45.958;12.492;2023-08-21T12:42:10;32.80;69.00
40374;DHT22;26079;45.958;12.492;2023-08-21T12:44:39;32.90;69.30
40374;DHT22;26079;45.958;12.492;2023-08-21T12:47:04;32.80;68.00
40374;DHT22;26079;45.958;12.492;2023-08-21T12:49:30;33.00;66.90
40374;DHT22;26079;45.958;12.492;2023-08-21T12:51:56;33.30;66.80
40374;DHT22;26079;45.958;12.492;2023-08-21T12:54:21;33.50;66.70
40374;DHT22;26079;45.958;12.492;2023-08-21T12:56:47;33.60;66.70
40374;DHT22;26079;45.958;12.492;2023-08-21T12:59:13;33.60;66.30
40374;DHT22;26079;45.958;12.492;2023-08-21T13:01:39;33.60;66.90
40374;DHT22;26079;45.958;12.492;2023-08-21T13:04:05;33.60;66.20
40374;DHT22;26079;45.958;12.492;2023-08-21T13:06:31;33.60;66.60
40374;DHT22;26079;45.958;12.492;2023-08-21T13:08:57;33.60;66.30
40374;DHT22;26079;45.958;12.492;2023-08-21T13:11:22;33.60;66.20
40374;DHT22;26079;45.958;12.492;2023-08-21T13:13:48;33.50;66.60
40374;DHT22;26079;45.958;12.492;2023-08-21T13:16:14;33.20;66.90
40374;DHT22;26079;45.958;12.492;2023-08-21T13:18:40;33.20;68.20
40374;DHT22;26079;45.958;12.492;2023-08-21T13:21:05;33.20;68.70
40374;DHT22;26079;45.958;12.492;2023-08-21T13:23:31;33.20;68.10
40374;DHT22;26079;45.958;12.492;2023-08-21T13:25:59;33.40;66.90
40374;DHT22;26079;45.958;12.492;2023-08-21T13:28:25;33.40;67.30
40374;DHT22;26079;45.958;12.492;2023-08-21T13:30:51;33.30;67.90
40374;DHT22;26079;45.958;12.492;2023-08-21T13:33:18;33.40;67.00
40374;DHT22;26079;45.958;12.492;2023-08-21T13:35:44;33.40;67.00
40374;DHT22;26079;45.958;12.492;2023-08-21T13:38:11;33.40;66.70
40374;DHT22;26079;45.958;12.492;2023-08-21T13:40:37;33.60;66.10
40374;DHT22;26079;45.958;12.492;2023-08-21T13:43:03;33.50;66.80
40374;DHT22;26079;45.958;12.492;2023-08-21T13:45:29;33.40;66.80
40374;DHT22;26079;45.958;12.492;2023-08-21T13:47:54;33.60;66.60
40374;DHT22;26079;45.958;12.492;2023-08-21T13:50:20;33.60;66.70
40374;DHT22;26079;45.958;12.492;2023-08-21T13:52:47;33.70;67.30
40374;DHT22;26079;45.958;12.492;2023-08-21T13:55:13;33.70;66.90
40374;DHT22;26079;45.958;12.492;2023-08-21T13:57:39;33.70;66.00
40374;DHT22;26079;45.958;12.492;2023-08-21T14:00:07;33.80;65.80
40374;DHT22;26079;45.958;12.492;2023-08-21T14:02:33;34.00;64.40
40374;DHT22;26079;45.958;12.492;2023-08-21T14:05:00;34.10;65.40
40374;DHT22;26079;45.958;12.492;2023-08-21T14:07:26;33.80;65.40
40374;DHT22;26079;45.958;12.492;2023-08-21T14:09:52;33.80;66.30
40374;DHT22;26079;45.958;12.492;2023-08-21T14:12:18;33.90;65.80
40374;DHT22;26079;45.958;12.492;2023-08-21T14:14:44;33.80;66.60
40374;DHT22;26079;45.958;12.492;2023-08-21T14:17:09;33.60;68.10
40374;DHT22;26079;45.958;12.492;2023-08-21T14:19:35;33.50;68.40
40374;DHT22;26079;45.958;12.492;2023-08-21T14:22:01;33.50;68.20
40374;DHT22;26079;45.958;12.492;2023-08-21T14:24:28;33.50;67.10
40374;DHT22;26079;45.958;12.492;2023-08-21T14:26:54;33.50;66.70
40374;DHT22;26079;45.958;12.492;2023-08-21T14:29:20;33.50;68.60
40374;DHT22;26079;45.958;12.492;2023-08-21T14:31:45;33.50;67.20
40374;DHT22;26079;45.958;12.492;2023-08-21T14:34:13;33.40;66.90
40374;DHT22;26079;45.958;12.492;2023-08-21T14:36:38;33.40;67.10
40374;DHT22;26079;45.958;12.492;2023-08-21T14:39:04;33.30;67.80
40374;DHT22;26079;45.958;12.492;2023-08-21T14:41:29;33.20;67.50
40374;DHT22;26079;45.958;12.492;2023-08-21T14:43:55;33.20;68.20
40374;DHT22;26079;45.958;12.492;2023-08-21T14:46:21;33.20;68.40
40374;DHT22;26079;45.958;12.492;2023-08-21T14:48:47;33.20;68.60
40374;DHT22;26079;45.958;12.492;2023-08-21T14:51:12;33.30;67.70
40374;DHT22;26079;45.958;12.492;2023-08-21T14:53:38;33.20;67.50
40374;DHT22;26079;45.958;12.492;2023-08-21T14:56:04;33.30;68.20
40374;DHT22;26079;45.958;12.492;2023-08-21T14:58:30;33.40;67.20
40374;DHT22;26079;45.958;12.492;2023-08-21T15:00:55;33.60;66.30
40374;DHT22;26079;45.958;12.492;2023-08-21T15:03:24;33.60;65.80
40374;DHT22;26079;45.958;12.492;2023-08-21T15:05:50;33.50;67.60
40374;DHT22;26079;45.958;12.492;2023-08-21T15:08:16;33.70;67.00
40374;DHT22;26079;45.958;12.492;2023-08-21T15:10:42;33.90;65.90
40374;DHT22;26079;45.958;12.492;2023-08-21T15:13:08;34.00;66.20
40374;DHT22;26079;45.958;12.492;2023-08-21T15:15:34;34.20;66.30
40374;DHT22;26079;45.958;12.492;2023-08-21T15:17:59;34.20;64.60
40374;DHT22;26079;45.958;12.492;2023-08-21T15:20:25;34.20;65.60
40374;DHT22;26079;45.958;12.492;2023-08-21T15:22:51;34.20;66.10
40374;DHT22;26079;45.958;12.492;2023-08-21T15:25:16;34.20;66.70
40374;DHT22;26079;45.958;12.492;2023-08-21T15:27:42;34.10;65.00
40374;DHT22;26079;45.958;12.492;2023-08-21T15:30:08;34.10;65.30
40374;DHT22;26079;45.958;12.492;2023-08-21T15:32:34;34.10;63.70